Airfield :
LOGIN :

Register | Disclaimer

   EN    FR    IT 

 










Legend :    VFR   Marginal VFR   IFR   Intensive IFR   Very Intensive IFR
Visi :
Ceiling :
>= 8 km
>= 3000ft
5 to 8 km
1000 to 3000 ft
1500m to 5 km
500 to 1000 ft
800 to 1500m
200 to 500 ft
< 800m
< 200 ft
Symbols :   Thunderstorms  Fog  Heavy snow  Heavy precipitations  Wind > 20 kt
SIGMETs :     Misc.  Thunderstorms  Icing  Turbulence  Mountain Waves  Volcanic Ashes






- Airport Elevation : 24 ft
- IATA code : AXD


LGAL - Dimokritos

CURRENT METAR :
  • 181150Z 11004KT 9999 FEW020TCU SCT025 21/19 Q1012

EXPIRED METARs :
  • 181120Z 03006KT 9999 FEW020TCU BKN025 20/17 Q1012
  • 181050Z 02005KT 7000 -RA FEW018CB SCT020TCU BKN025 20/17 Q1012 RETS
  • 181020Z 22004KT 6000 TSRA FEW018CB SCT020TCU BKN025 22/18 Q1012
  • 180950Z 24005KT 9999 FEW020TCU SCT025 24/17 Q1013
  • 180920Z 22006KT 9999 FEW020TCU SCT025 24/19 Q1013

TAF TAF LGAL
Valid from the 18 at 12:00 until the 18 at 21:00 UTC


181100Z 1812/1821 05016G28KT 9999 FEW018TCU BKN020 BKN060
PROB40
TEMPO 1812/1818 5000 RA FEW012 FEW018TCU BKN035 BKN060
PROB30
TEMPO 1812/1818 4000 TSRA FEW010 FEW018CB BKN025 BKN060



MET'MAP, your aeronautical weather chart ! - Copyright ORBIFLY December 2007 - Disclaimer

ORBIFLY MET'MAP TEAM :

Programming & Development : Alexandra Zaïnal
Original concept : Baudouin d'Aumeries
Technical & hardware support : Manuel Goepfert
Assistance : Marc-Olivier Méhu

Contact : metmap@orbifly.com




SOURCES & CREDITS :

   NOAA